sensor_id;sensor_type;location;lat;lon;timestamp;P1;durP1;ratioP1;P2;durP2;ratioP2
52266;SDS011;38223;50.940;4.034;2023-06-24T00:00:37;5.00;;;3.75;;
52266;SDS011;38223;50.940;4.034;2023-06-24T00:03:14;4.65;;;4.08;;
52266;SDS011;38223;50.940;4.034;2023-06-24T00:05:44;4.97;;;3.27;;
52266;SDS011;38223;50.940;4.034;2023-06-24T00:08:16;3.90;;;3.42;;
52266;SDS011;38223;50.940;4.034;2023-06-24T00:10:51;4.00;;;3.60;;
52266;SDS011;38223;50.940;4.034;2023-06-24T00:13:25;5.00;;;3.52;;
52266;SDS011;38223;50.940;4.034;2023-06-24T00:15:56;3.50;;;3.20;;
52266;SDS011;38223;50.940;4.034;2023-06-24T00:18:29;4.60;;;3.35;;
52266;SDS011;38223;50.940;4.034;2023-06-24T00:20:59;5.15;;;3.60;;
52266;SDS011;38223;50.940;4.034;2023-06-24T00:23:33;3.22;;;2.95;;
52266;SDS011;38223;50.940;4.034;2023-06-24T00:26:02;3.20;;;3.00;;
52266;SDS011;38223;50.940;4.034;2023-06-24T00:28:37;3.47;;;3.17;;
52266;SDS011;38223;50.940;4.034;2023-06-24T00:31:07;3.33;;;3.10;;
52266;SDS011;38223;50.940;4.034;2023-06-24T00:33:40;6.45;;;3.45;;
52266;SDS011;38223;50.940;4.034;2023-06-24T00:36:12;3.60;;;3.30;;
52266;SDS011;38223;50.940;4.034;2023-06-24T00:38:46;3.90;;;3.00;;
52266;SDS011;38223;50.940;4.034;2023-06-24T00:41:20;3.95;;;3.58;;
52266;SDS011;38223;50.940;4.034;2023-06-24T00:43:54;3.35;;;3.10;;
52266;SDS011;38223;50.940;4.034;2023-06-24T00:46:24;4.45;;;3.70;;
52266;SDS011;38223;50.940;4.034;2023-06-24T00:49:01;3.65;;;3.35;;
52266;SDS011;38223;50.940;4.034;2023-06-24T00:51:32;3.40;;;3.00;;
52266;SDS011;38223;50.940;4.034;2023-06-24T00:54:05;4.33;;;3.52;;
52266;SDS011;38223;50.940;4.034;2023-06-24T00:56:38;8.08;;;3.83;;
52266;SDS011;38223;50.940;4.034;2023-06-24T00:59:13;4.12;;;3.50;;
52266;SDS011;38223;50.940;4.034;2023-06-24T01:01:42;3.47;;;3.17;;
52266;SDS011;38223;50.940;4.034;2023-06-24T01:04:16;6.30;;;3.20;;
52266;SDS011;38223;50.940;4.034;2023-06-24T01:06:45;3.70;;;3.40;;
52266;SDS011;38223;50.940;4.034;2023-06-24T01:09:18;9.83;;;3.17;;
52266;SDS011;38223;50.940;4.034;2023-06-24T01:11:47;3.40;;;3.10;;
52266;SDS011;38223;50.940;4.034;2023-06-24T01:14:20;4.47;;;3.55;;
52266;SDS011;38223;50.940;4.034;2023-06-24T01:16:57;4.15;;;3.83;;
52266;SDS011;38223;50.940;4.034;2023-06-24T01:19:56;5.10;;;3.67;;
52266;SDS011;38223;50.940;4.034;2023-06-24T01:34:31;3.50;;;3.20;;
52266;SDS011;38223;50.940;4.034;2023-06-24T01:37:08;4.28;;;3.45;;
52266;SDS011;38223;50.940;4.034;2023-06-24T01:39:53;5.28;;;3.72;;
52266;SDS011;38223;50.940;4.034;2023-06-24T01:42:22;4.30;;;3.90;;
52266;SDS011;38223;50.940;4.034;2023-06-24T01:44:52;4.65;;;3.75;;
52266;SDS011;38223;50.940;4.034;2023-06-24T01:47:26;4.28;;;3.87;;
52266;SDS011;38223;50.940;4.034;2023-06-24T01:50:01;3.83;;;3.35;;
52266;SDS011;38223;50.940;4.034;2023-06-24T01:52:31;4.05;;;3.52;;
52266;SDS011;38223;50.940;4.034;2023-06-24T01:55:05;3.87;;;3.55;;
52266;SDS011;38223;50.940;4.034;2023-06-24T01:57:39;5.00;;;3.95;;
52266;SDS011;38223;50.940;4.034;2023-06-24T02:00:10;3.80;;;3.50;;
52266;SDS011;38223;50.940;4.034;2023-06-24T02:02:45;4.10;;;3.70;;
52266;SDS011;38223;50.940;4.034;2023-06-24T02:05:14;4.17;;;3.80;;
52266;SDS011;38223;50.940;4.034;2023-06-24T02:07:51;3.87;;;3.60;;
52266;SDS011;38223;50.940;4.034;2023-06-24T02:10:25;8.43;;;3.70;;
52266;SDS011;38223;50.940;4.034;2023-06-24T02:12:56;4.10;;;3.67;;
52266;SDS011;38223;50.940;4.034;2023-06-24T02:15:30;4.42;;;4.08;;
52266;SDS011;38223;50.940;4.034;2023-06-24T02:18:00;4.53;;;4.12;;
52266;SDS011;38223;50.940;4.034;2023-06-24T02:20:37;4.15;;;3.85;;
52266;SDS011;38223;50.940;4.034;2023-06-24T02:23:10;7.20;;;3.83;;
52266;SDS011;38223;50.940;4.034;2023-06-24T02:25:47;3.95;;;3.65;;
52266;SDS011;38223;50.940;4.034;2023-06-24T02:28:17;4.70;;;4.30;;
52266;SDS011;38223;50.940;4.034;2023-06-24T02:30:53;4.70;;;4.30;;
52266;SDS011;38223;50.940;4.034;2023-06-24T02:33:25;4.72;;;4.03;;
52266;SDS011;38223;50.940;4.034;2023-06-24T02:36:01;5.45;;;4.35;;
52266;SDS011;38223;50.940;4.034;2023-06-24T02:38:34;4.75;;;4.30;;
52266;SDS011;38223;50.940;4.034;2023-06-24T02:41:08;4.55;;;4.17;;
52266;SDS011;38223;50.940;4.034;2023-06-24T02:43:38;5.25;;;4.60;;
52266;SDS011;38223;50.940;4.034;2023-06-24T02:46:08;4.75;;;4.35;;
52266;SDS011;38223;50.940;4.034;2023-06-24T02:48:40;5.22;;;4.80;;
52266;SDS011;38223;50.940;4.034;2023-06-24T02:51:14;4.83;;;4.42;;
52266;SDS011;38223;50.940;4.034;2023-06-24T02:53:46;5.95;;;4.72;;
52266;SDS011;38223;50.940;4.034;2023-06-24T02:56:22;4.75;;;4.22;;
52266;SDS011;38223;50.940;4.034;2023-06-24T02:58:52;4.83;;;4.30;;
52266;SDS011;38223;50.940;4.034;2023-06-24T03:01:30;5.05;;;4.50;;
52266;SDS011;38223;50.940;4.034;2023-06-24T03:04:00;5.70;;;4.75;;
52266;SDS011;38223;50.940;4.034;2023-06-24T03:06:34;5.20;;;4.75;;
52266;SDS011;38223;50.940;4.034;2023-06-24T03:09:05;4.35;;;3.95;;
52266;SDS011;38223;50.940;4.034;2023-06-24T03:11:45;5.15;;;4.40;;
52266;SDS011;38223;50.940;4.034;2023-06-24T03:14:14;4.83;;;4.35;;
52266;SDS011;38223;50.940;4.034;2023-06-24T03:16:48;5.37;;;4.87;;
52266;SDS011;38223;50.940;4.034;2023-06-24T03:19:22;5.87;;;4.60;;
52266;SDS011;38223;50.940;4.034;2023-06-24T03:21:57;10.13;;;5.10;;
52266;SDS011;38223;50.940;4.034;2023-06-24T03:24:31;6.08;;;4.78;;
52266;SDS011;38223;50.940;4.034;2023-06-24T03:27:07;5.10;;;4.70;;
52266;SDS011;38223;50.940;4.034;2023-06-24T03:29:37;8.28;;;5.30;;
52266;SDS011;38223;50.940;4.034;2023-06-24T03:32:07;5.85;;;5.25;;
52266;SDS011;38223;50.940;4.034;2023-06-24T03:34:36;5.72;;;5.22;;
52266;SDS011;38223;50.940;4.034;2023-06-24T03:37:08;5.20;;;4.70;;
52266;SDS011;38223;50.940;4.034;2023-06-24T03:39:40;5.87;;;5.37;;
52266;SDS011;38223;50.940;4.034;2023-06-24T03:42:15;5.55;;;4.87;;
52266;SDS011;38223;50.940;4.034;2023-06-24T03:44:44;5.70;;;5.00;;
52266;SDS011;38223;50.940;4.034;2023-06-24T03:47:16;5.20;;;4.80;;
52266;SDS011;38223;50.940;4.034;2023-06-24T03:49:44;7.35;;;5.25;;
52266;SDS011;38223;50.940;4.034;2023-06-24T03:52:19;5.87;;;5.25;;
52266;SDS011;38223;50.940;4.034;2023-06-24T03:54:49;5.47;;;4.85;;
52266;SDS011;38223;50.940;4.034;2023-06-24T03:57:20;5.97;;;5.35;;
52266;SDS011;38223;50.940;4.034;2023-06-24T03:59:54;5.35;;;4.95;;
52266;SDS011;38223;50.940;4.034;2023-06-24T04:02:27;5.28;;;4.78;;
52266;SDS011;38223;50.940;4.034;2023-06-24T04:04:58;5.53;;;5.03;;
52266;SDS011;38223;50.940;4.034;2023-06-24T04:07:31;5.65;;;5.15;;
52266;SDS011;38223;50.940;4.034;2023-06-24T04:10:05;7.97;;;5.22;;
52266;SDS011;38223;50.940;4.034;2023-06-24T04:12:42;6.53;;;5.05;;
52266;SDS011;38223;50.940;4.034;2023-06-24T04:15:13;5.65;;;5.05;;
52266;SDS011;38223;50.940;4.034;2023-06-24T04:17:43;5.40;;;4.90;;
52266;SDS011;38223;50.940;4.034;2023-06-24T04:20:21;5.65;;;5.12;;
52266;SDS011;38223;50.940;4.034;2023-06-24T04:22:53;4.97;;;4.55;;
52266;SDS011;38223;50.940;4.034;2023-06-24T04:25:23;5.65;;;5.15;;
52266;SDS011;38223;50.940;4.034;2023-06-24T04:28:02;5.12;;;4.72;;
52266;SDS011;38223;50.940;4.034;2023-06-24T04:30:35;5.90;;;5.40;;
52266;SDS011;38223;50.940;4.034;2023-06-24T04:33:08;7.53;;;5.83;;
52266;SDS011;38223;50.940;4.034;2023-06-24T04:35:42;5.42;;;5.03;;
52266;SDS011;38223;50.940;4.034;2023-06-24T04:38:17;5.62;;;5.12;;
52266;SDS011;38223;50.940;4.034;2023-06-24T04:40:49;5.92;;;5.33;;
52266;SDS011;38223;50.940;4.034;2023-06-24T04:43:26;9.45;;;5.58;;
52266;SDS011;38223;50.940;4.034;2023-06-24T04:45:56;6.53;;;5.92;;
52266;SDS011;38223;50.940;4.034;2023-06-24T04:48:27;8.20;;;5.25;;
52266;SDS011;38223;50.940;4.034;2023-06-24T04:51:04;6.87;;;5.37;;
52266;SDS011;38223;50.940;4.034;2023-06-24T04:53:38;5.95;;;5.42;;
52266;SDS011;38223;50.940;4.034;2023-06-24T04:56:11;6.53;;;5.87;;
52266;SDS011;38223;50.940;4.034;2023-06-24T04:58:45;7.17;;;5.47;;
52266;SDS011;38223;50.940;4.034;2023-06-24T05:01:23;9.20;;;5.53;;
52266;SDS011;38223;50.940;4.034;2023-06-24T05:03:56;6.97;;;5.37;;
52266;SDS011;38223;50.940;4.034;2023-06-24T05:06:27;5.80;;;5.20;;
52266;SDS011;38223;50.940;4.034;2023-06-24T05:08:57;5.92;;;5.42;;
52266;SDS011;38223;50.940;4.034;2023-06-24T05:11:30;5.45;;;5.05;;
52266;SDS011;38223;50.940;4.034;2023-06-24T05:14:03;6.47;;;5.28;;
52266;SDS011;38223;50.940;4.034;2023-06-24T05:16:38;6.10;;;5.50;;
52266;SDS011;38223;50.940;4.034;2023-06-24T05:19:08;6.65;;;5.78;;
52266;SDS011;38223;50.940;4.034;2023-06-24T05:21:40;6.55;;;6.05;;
52266;SDS011;38223;50.940;4.034;2023-06-24T05:24:13;7.75;;;5.72;;
52266;SDS011;38223;50.940;4.034;2023-06-24T05:26:48;11.40;;;6.12;;
52266;SDS011;38223;50.940;4.034;2023-06-24T05:29:23;8.83;;;5.87;;
52266;SDS011;38223;50.940;4.034;2023-06-24T05:31:54;7.90;;;5.70;;
52266;SDS011;38223;50.940;4.034;2023-06-24T05:34:23;9.25;;;6.40;;
52266;SDS011;38223;50.940;4.034;2023-06-24T05:36:55;6.45;;;5.83;;
52266;SDS011;38223;50.940;4.034;2023-06-24T05:39:27;7.70;;;5.67;;
52266;SDS011;38223;50.940;4.034;2023-06-24T05:41:56;6.95;;;5.58;;
52266;SDS011;38223;50.940;4.034;2023-06-24T05:44:28;7.25;;;6.50;;
52266;SDS011;38223;50.940;4.034;2023-06-24T05:46:59;9.18;;;6.35;;
52266;SDS011;38223;50.940;4.034;2023-06-24T05:49:26;7.80;;;6.12;;
52266;SDS011;38223;50.940;4.034;2023-06-24T05:51:59;9.15;;;5.65;;
52266;SDS011;38223;50.940;4.034;2023-06-24T05:54:30;9.48;;;5.70;;
52266;SDS011;38223;50.940;4.034;2023-06-24T05:57:02;5.65;;;5.12;;
52266;SDS011;38223;50.940;4.034;2023-06-24T05:59:34;5.40;;;4.90;;
52266;SDS011;38223;50.940;4.034;2023-06-24T06:02:05;5.30;;;4.80;;
52266;SDS011;38223;50.940;4.034;2023-06-24T06:04:35;6.70;;;5.22;;
52266;SDS011;38223;50.940;4.034;2023-06-24T06:07:12;6.65;;;4.87;;
52266;SDS011;38223;50.940;4.034;2023-06-24T06:09:45;8.78;;;4.75;;
52266;SDS011;38223;50.940;4.034;2023-06-24T06:12:20;4.83;;;4.42;;
52266;SDS011;38223;50.940;4.034;2023-06-24T06:14:51;7.42;;;5.12;;
52266;SDS011;38223;50.940;4.034;2023-06-24T06:17:23;7.70;;;4.95;;
52266;SDS011;38223;50.940;4.034;2023-06-24T06:19:59;4.95;;;4.55;;
52266;SDS011;38223;50.940;4.034;2023-06-24T06:22:30;8.13;;;5.28;;
52266;SDS011;38223;50.940;4.034;2023-06-24T06:25:01;6.35;;;5.37;;
52266;SDS011;38223;50.940;4.034;2023-06-24T06:27:32;7.55;;;5.70;;
52266;SDS011;38223;50.940;4.034;2023-06-24T06:30:05;7.28;;;5.50;;
52266;SDS011;38223;50.940;4.034;2023-06-24T06:32:37;6.03;;;4.75;;
52266;SDS011;38223;50.940;4.034;2023-06-24T06:35:08;5.70;;;5.20;;
52266;SDS011;38223;50.940;4.034;2023-06-24T06:37:42;5.78;;;5.10;;
52266;SDS011;38223;50.940;4.034;2023-06-24T06:40:14;5.70;;;5.10;;
52266;SDS011;38223;50.940;4.034;2023-06-24T06:42:44;5.15;;;4.75;;
52266;SDS011;38223;50.940;4.034;2023-06-24T06:45:13;5.37;;;4.87;;
52266;SDS011;38223;50.940;4.034;2023-06-24T06:47:42;5.47;;;4.90;;
52266;SDS011;38223;50.940;4.034;2023-06-24T06:50:10;7.65;;;5.33;;
52266;SDS011;38223;50.940;4.034;2023-06-24T06:52:40;6.00;;;4.63;;
52266;SDS011;38223;50.940;4.034;2023-06-24T06:55:18;8.10;;;5.03;;
52266;SDS011;38223;50.940;4.034;2023-06-24T06:57:48;9.28;;;5.10;;
52266;SDS011;38223;50.940;4.034;2023-06-24T07:00:18;5.30;;;4.78;;
52266;SDS011;38223;50.940;4.034;2023-06-24T07:02:50;6.28;;;4.90;;
52266;SDS011;38223;50.940;4.034;2023-06-24T07:05:21;5.67;;;4.00;;
52266;SDS011;38223;50.940;4.034;2023-06-24T07:07:53;5.92;;;3.77;;
52266;SDS011;38223;50.940;4.034;2023-06-24T07:10:27;4.47;;;4.08;;
52266;SDS011;38223;50.940;4.034;2023-06-24T07:13:00;4.10;;;3.70;;
52266;SDS011;38223;50.940;4.034;2023-06-24T07:15:30;4.03;;;3.55;;
52266;SDS011;38223;50.940;4.034;2023-06-24T07:18:08;9.90;;;4.17;;
52266;SDS011;38223;50.940;4.034;2023-06-24T07:20:40;4.70;;;3.52;;
52266;SDS011;38223;50.940;4.034;2023-06-24T07:23:13;5.65;;;3.80;;
52266;SDS011;38223;50.940;4.034;2023-06-24T07:25:44;4.40;;;4.00;;
52266;SDS011;38223;50.940;4.034;2023-06-24T07:28:16;5.47;;;3.77;;
52266;SDS011;38223;50.940;4.034;2023-06-24T07:30:47;4.75;;;4.20;;
52266;SDS011;38223;50.940;4.034;2023-06-24T07:33:19;4.97;;;4.25;;
52266;SDS011;38223;50.940;4.034;2023-06-24T07:35:49;5.67;;;4.30;;
52266;SDS011;38223;50.940;4.034;2023-06-24T07:38:21;4.03;;;3.65;;
52266;SDS011;38223;50.940;4.034;2023-06-24T07:40:55;4.65;;;3.80;;
52266;SDS011;38223;50.940;4.034;2023-06-24T07:43:26;4.72;;;4.28;;
52266;SDS011;38223;50.940;4.034;2023-06-24T07:46:00;5.25;;;4.03;;
52266;SDS011;38223;50.940;4.034;2023-06-24T07:48:31;4.65;;;3.85;;
52266;SDS011;38223;50.940;4.034;2023-06-24T07:51:03;5.07;;;3.67;;
52266;SDS011;38223;50.940;4.034;2023-06-24T07:53:30;4.85;;;4.00;;
52266;SDS011;38223;50.940;4.034;2023-06-24T07:58:30;3.37;;;3.12;;
52266;SDS011;38223;50.940;4.034;2023-06-24T08:01:02;5.47;;;3.75;;
52266;SDS011;38223;50.940;4.034;2023-06-24T08:03:33;5.17;;;3.75;;
52266;SDS011;38223;50.940;4.034;2023-06-24T08:06:05;4.15;;;3.75;;
52266;SDS011;38223;50.940;4.034;2023-06-24T08:08:43;3.52;;;3.12;;
52266;SDS011;38223;50.940;4.034;2023-06-24T08:11:11;3.62;;;3.30;;
52266;SDS011;38223;50.940;4.034;2023-06-24T08:13:40;4.63;;;3.77;;
52266;SDS011;38223;50.940;4.034;2023-06-24T08:16:15;4.08;;;3.65;;
52266;SDS011;38223;50.940;4.034;2023-06-24T08:18:48;5.72;;;3.70;;
52266;SDS011;38223;50.940;4.034;2023-06-24T08:21:19;5.50;;;3.10;;
52266;SDS011;38223;50.940;4.034;2023-06-24T08:24:07;2.75;;;2.52;;
52266;SDS011;38223;50.940;4.034;2023-06-24T08:26:37;3.25;;;2.95;;
52266;SDS011;38223;50.940;4.034;2023-06-24T08:29:09;4.83;;;2.55;;
52266;SDS011;38223;50.940;4.034;2023-06-24T08:31:40;2.80;;;2.60;;
52266;SDS011;38223;50.940;4.034;2023-06-24T08:34:08;3.27;;;2.52;;
52266;SDS011;38223;50.940;4.034;2023-06-24T08:36:36;3.33;;;2.22;;
52266;SDS011;38223;50.940;4.034;2023-06-24T08:39:03;3.83;;;2.45;;
52266;SDS011;38223;50.940;4.034;2023-06-24T08:41:31;3.45;;;2.27;;
52266;SDS011;38223;50.940;4.034;2023-06-24T08:44:00;3.95;;;2.22;;
52266;SDS011;38223;50.940;4.034;2023-06-24T08:46:29;2.47;;;2.27;;
52266;SDS011;38223;50.940;4.034;2023-06-24T08:49:06;2.10;;;1.90;;
52266;SDS011;38223;50.940;4.034;2023-06-24T08:51:38;2.87;;;2.30;;
52266;SDS011;38223;50.940;4.034;2023-06-24T08:54:10;2.27;;;2.08;;
52266;SDS011;38223;50.940;4.034;2023-06-24T08:56:41;2.60;;;1.90;;
52266;SDS011;38223;50.940;4.034;2023-06-24T08:59:09;3.25;;;2.45;;
52266;SDS011;38223;50.940;4.034;2023-06-24T09:01:41;2.30;;;1.50;;
52266;SDS011;38223;50.940;4.034;2023-06-24T09:04:12;3.70;;;2.10;;
52266;SDS011;38223;50.940;4.034;2023-06-24T09:06:40;2.20;;;1.92;;
52266;SDS011;38223;50.940;4.034;2023-06-24T09:09:17;3.80;;;1.80;;
52266;SDS011;38223;50.940;4.034;2023-06-24T09:11:53;2.62;;;2.30;;
52266;SDS011;38223;50.940;4.034;2023-06-24T09:14:22;4.37;;;1.90;;
52266;SDS011;38223;50.940;4.034;2023-06-24T09:16:55;2.00;;;1.80;;
52266;SDS011;38223;50.940;4.034;2023-06-24T09:19:24;4.03;;;2.15;;
52266;SDS011;38223;50.940;4.034;2023-06-24T09:21:55;2.17;;;1.82;;
52266;SDS011;38223;50.940;4.034;2023-06-24T09:24:27;2.20;;;1.50;;
52266;SDS011;38223;50.940;4.034;2023-06-24T09:26:55;1.62;;;1.50;;
52266;SDS011;38223;50.940;4.034;2023-06-24T09:29:33;2.75;;;1.90;;
52266;SDS011;38223;50.940;4.034;2023-06-24T09:32:05;2.60;;;1.62;;
52266;SDS011;38223;50.940;4.034;2023-06-24T09:34:39;4.87;;;2.27;;
52266;SDS011;38223;50.940;4.034;2023-06-24T09:37:12;2.50;;;1.57;;
52266;SDS011;38223;50.940;4.034;2023-06-24T09:39:43;2.85;;;1.90;;
52266;SDS011;38223;50.940;4.034;2023-06-24T09:42:11;4.45;;;2.10;;
52266;SDS011;38223;50.940;4.034;2023-06-24T09:44:39;2.77;;;1.60;;
52266;SDS011;38223;50.940;4.034;2023-06-24T09:47:07;2.05;;;1.85;;
52266;SDS011;38223;50.940;4.034;2023-06-24T09:49:36;2.55;;;2.08;;
52266;SDS011;38223;50.940;4.034;2023-06-24T09:52:04;4.37;;;2.00;;
52266;SDS011;38223;50.940;4.034;2023-06-24T09:54:33;4.42;;;2.30;;
52266;SDS011;38223;50.940;4.034;2023-06-24T09:57:07;1.77;;;1.40;;
52266;SDS011;38223;50.940;4.034;2023-06-24T09:59:35;1.85;;;1.60;;
52266;SDS011;38223;50.940;4.034;2023-06-24T10:02:07;2.37;;;1.92;;
52266;SDS011;38223;50.940;4.034;2023-06-24T10:04:39;2.65;;;1.80;;
52266;SDS011;38223;50.940;4.034;2023-06-24T10:07:08;3.83;;;1.95;;
52266;SDS011;38223;50.940;4.034;2023-06-24T10:09:38;1.95;;;1.72;;
52266;SDS011;38223;50.940;4.034;2023-06-24T10:12:10;2.55;;;2.35;;
52266;SDS011;38223;50.940;4.034;2023-06-24T10:14:39;1.80;;;1.55;;
52266;SDS011;38223;50.940;4.034;2023-06-24T10:17:07;2.95;;;2.00;;
52266;SDS011;38223;50.940;4.034;2023-06-24T10:19:38;4.87;;;1.85;;
52266;SDS011;38223;50.940;4.034;2023-06-24T10:22:09;2.92;;;2.17;;
52266;SDS011;38223;50.940;4.034;2023-06-24T10:24:41;3.42;;;2.25;;
52266;SDS011;38223;50.940;4.034;2023-06-24T10:27:15;2.58;;;1.90;;
52266;SDS011;38223;50.940;4.034;2023-06-24T10:29:52;2.47;;;1.92;;
52266;SDS011;38223;50.940;4.034;2023-06-24T10:32:24;2.20;;;2.00;;
52266;SDS011;38223;50.940;4.034;2023-06-24T10:34:54;2.30;;;2.08;;
52266;SDS011;38223;50.940;4.034;2023-06-24T10:37:25;2.22;;;2.02;;
52266;SDS011;38223;50.940;4.034;2023-06-24T10:40:00;2.37;;;1.90;;
52266;SDS011;38223;50.940;4.034;2023-06-24T10:42:33;2.33;;;2.12;;
52266;SDS011;38223;50.940;4.034;2023-06-24T10:45:18;1.75;;;1.65;;
52266;SDS011;38223;50.940;4.034;2023-06-24T10:47:52;2.77;;;1.40;;
52266;SDS011;38223;50.940;4.034;2023-06-24T10:50:22;2.00;;;1.80;;
52266;SDS011;38223;50.940;4.034;2023-06-24T10:52:50;2.20;;;2.00;;
52266;SDS011;38223;50.940;4.034;2023-06-24T10:55:23;2.37;;;2.15;;
52266;SDS011;38223;50.940;4.034;2023-06-24T10:57:52;1.77;;;1.47;;
52266;SDS011;38223;50.940;4.034;2023-06-24T11:00:20;1.72;;;1.62;;
52266;SDS011;38223;50.940;4.034;2023-06-24T11:02:54;3.60;;;1.55;;
52266;SDS011;38223;50.940;4.034;2023-06-24T11:05:22;2.67;;;1.50;;
52266;SDS011;38223;50.940;4.034;2023-06-24T11:07:54;1.92;;;1.72;;
52266;SDS011;38223;50.940;4.034;2023-06-24T11:10:29;1.52;;;1.42;;
52266;SDS011;38223;50.940;4.034;2023-06-24T11:13:07;3.77;;;1.35;;
52266;SDS011;38223;50.940;4.034;2023-06-24T11:15:35;2.08;;;1.40;;
52266;SDS011;38223;50.940;4.034;2023-06-24T11:18:07;2.30;;;1.70;;
52266;SDS011;38223;50.940;4.034;2023-06-24T11:20:36;2.00;;;1.70;;
52266;SDS011;38223;50.940;4.034;2023-06-24T11:23:09;3.90;;;1.57;;
52266;SDS011;38223;50.940;4.034;2023-06-24T11:25:40;2.08;;;1.52;;
52266;SDS011;38223;50.940;4.034;2023-06-24T11:28:16;2.30;;;2.10;;
52266;SDS011;38223;50.940;4.034;2023-06-24T11:30:44;2.08;;;1.60;;
52266;SDS011;38223;50.940;4.034;2023-06-24T11:33:15;1.25;;;1.15;;
52266;SDS011;38223;50.940;4.034;2023-06-24T11:35:47;2.02;;;1.40;;
52266;SDS011;38223;50.940;4.034;2023-06-24T11:38:28;2.83;;;1.77;;
52266;SDS011;38223;50.940;4.034;2023-06-24T11:41:01;1.40;;;1.20;;
52266;SDS011;38223;50.940;4.034;2023-06-24T11:43:37;1.30;;;1.20;;
52266;SDS011;38223;50.940;4.034;2023-06-24T11:46:41;1.57;;;1.00;;
52266;SDS011;38223;50.940;4.034;2023-06-24T11:49:06;1.72;;;1.30;;
52266;SDS011;38223;50.940;4.034;2023-06-24T11:51:50;1.40;;;1.30;;
52266;SDS011;38223;50.940;4.034;2023-06-24T11:54:27;2.70;;;1.57;;
52266;SDS011;38223;50.940;4.034;2023-06-24T11:57:05;1.60;;;1.50;;
52266;SDS011;38223;50.940;4.034;2023-06-24T11:59:51;2.52;;;1.22;;
52266;SDS011;38223;50.940;4.034;2023-06-24T12:02:26;1.42;;;1.32;;
52266;SDS011;38223;50.940;4.034;2023-06-24T12:04:58;1.95;;;1.10;;
52266;SDS011;38223;50.940;4.034;2023-06-24T12:07:33;3.15;;;1.50;;
52266;SDS011;38223;50.940;4.034;2023-06-24T12:10:12;2.65;;;1.40;;
52266;SDS011;38223;50.940;4.034;2023-06-24T12:12:58;2.70;;;1.05;;
52266;SDS011;38223;50.940;4.034;2023-06-24T12:15:34;1.27;;;1.17;;
52266;SDS011;38223;50.940;4.034;2023-06-24T12:18:05;1.62;;;1.40;;
52266;SDS011;38223;50.940;4.034;2023-06-24T12:20:36;2.60;;;1.30;;
52266;SDS011;38223;50.940;4.034;2023-06-24T12:23:08;2.55;;;1.12;;
52266;SDS011;38223;50.940;4.034;2023-06-24T12:25:40;2.02;;;1.32;;
52266;SDS011;38223;50.940;4.034;2023-06-24T12:28:16;1.40;;;1.30;;
52266;SDS011;38223;50.940;4.034;2023-06-24T12:31:00;2.33;;;1.80;;
52266;SDS011;38223;50.940;4.034;2023-06-24T12:33:56;2.45;;;1.70;;
52266;SDS011;38223;50.940;4.034;2023-06-24T12:36:35;4.33;;;2.22;;
52266;SDS011;38223;50.940;4.034;2023-06-24T12:39:14;3.90;;;1.85;;
52266;SDS011;38223;50.940;4.034;2023-06-24T12:44:34;5.05;;;2.00;;
52266;SDS011;38223;50.940;4.034;2023-06-24T12:47:11;1.85;;;1.60;;
52266;SDS011;38223;50.940;4.034;2023-06-24T12:49:49;2.35;;;2.12;;
52266;SDS011;38223;50.940;4.034;2023-06-24T12:52:18;2.80;;;2.60;;
52266;SDS011;38223;50.940;4.034;2023-06-24T12:54:55;3.58;;;3.27;;
52266;SDS011;38223;50.940;4.034;2023-06-24T12:57:34;1.92;;;1.67;;
52266;SDS011;38223;50.940;4.034;2023-06-24T13:00:36;2.20;;;2.00;;
52266;SDS011;38223;50.940;4.034;2023-06-24T13:03:16;2.67;;;1.87;;
52266;SDS011;38223;50.940;4.034;2023-06-24T13:05:48;2.40;;;2.00;;
52266;SDS011;38223;50.940;4.034;2023-06-24T13:08:27;2.27;;;2.10;;
52266;SDS011;38223;50.940;4.034;2023-06-24T13:10:58;2.72;;;1.92;;
52266;SDS011;38223;50.940;4.034;2023-06-24T13:13:27;2.22;;;2.00;;
52266;SDS011;38223;50.940;4.034;2023-06-24T13:16:00;2.40;;;2.20;;
52266;SDS011;38223;50.940;4.034;2023-06-24T13:18:46;2.92;;;2.30;;
52266;SDS011;38223;50.940;4.034;2023-06-24T13:21:20;4.03;;;2.00;;
52266;SDS011;38223;50.940;4.034;2023-06-24T13:24:05;2.55;;;1.85;;
52266;SDS011;38223;50.940;4.034;2023-06-24T13:26:38;3.02;;;1.77;;
52266;SDS011;38223;50.940;4.034;2023-06-24T13:29:15;3.90;;;3.60;;
52266;SDS011;38223;50.940;4.034;2023-06-24T13:31:48;3.55;;;2.60;;
52266;SDS011;38223;50.940;4.034;2023-06-24T13:34:20;3.45;;;1.85;;
52266;SDS011;38223;50.940;4.034;2023-06-24T13:36:59;2.20;;;1.52;;
52266;SDS011;38223;50.940;4.034;2023-06-24T13:39:39;4.10;;;2.27;;
52266;SDS011;38223;50.940;4.034;2023-06-24T13:42:24;3.65;;;1.80;;
52266;SDS011;38223;50.940;4.034;2023-06-24T13:44:59;2.17;;;1.95;;
52266;SDS011;38223;50.940;4.034;2023-06-24T13:47:44;1.80;;;1.70;;
52266;SDS011;38223;50.940;4.034;2023-06-24T13:50:32;2.60;;;2.12;;
52266;SDS011;38223;50.940;4.034;2023-06-24T13:53:08;1.87;;;1.70;;
52266;SDS011;38223;50.940;4.034;2023-06-24T13:55:40;1.62;;;1.52;;
52266;SDS011;38223;50.940;4.034;2023-06-24T13:58:18;4.35;;;1.90;;
52266;SDS011;38223;50.940;4.034;2023-06-24T14:01:12;3.95;;;2.10;;
52266;SDS011;38223;50.940;4.034;2023-06-24T14:03:51;3.98;;;1.80;;
52266;SDS011;38223;50.940;4.034;2023-06-24T14:09:20;9.03;;;1.77;;
52266;SDS011;38223;50.940;4.034;2023-06-24T14:11:56;2.80;;;1.95;;
52266;SDS011;38223;50.940;4.034;2023-06-24T14:14:33;2.10;;;1.85;;
52266;SDS011;38223;50.940;4.034;2023-06-24T14:17:08;4.05;;;1.98;;
52266;SDS011;38223;50.940;4.034;2023-06-24T14:19:43;5.08;;;1.72;;
52266;SDS011;38223;50.940;4.034;2023-06-24T14:22:19;2.12;;;1.95;;
52266;SDS011;38223;50.940;4.034;2023-06-24T14:24:48;1.90;;;1.80;;
52266;SDS011;38223;50.940;4.034;2023-06-24T14:27:18;1.67;;;1.40;;
52266;SDS011;38223;50.940;4.034;2023-06-24T14:29:46;1.90;;;1.80;;
52266;SDS011;38223;50.940;4.034;2023-06-24T14:32:21;2.27;;;2.02;;
52266;SDS011;38223;50.940;4.034;2023-06-24T14:34:59;1.77;;;1.60;;
52266;SDS011;38223;50.940;4.034;2023-06-24T14:37:28;3.25;;;1.57;;
52266;SDS011;38223;50.940;4.034;2023-06-24T14:39:56;1.67;;;1.57;;
52266;SDS011;38223;50.940;4.034;2023-06-24T14:42:24;2.70;;;1.60;;
52266;SDS011;38223;50.940;4.034;2023-06-24T14:44:51;2.80;;;2.00;;
52266;SDS011;38223;50.940;4.034;2023-06-24T14:47:21;2.47;;;1.85;;
52266;SDS011;38223;50.940;4.034;2023-06-24T14:49:59;2.83;;;1.50;;
52266;SDS011;38223;50.940;4.034;2023-06-24T14:52:43;1.70;;;1.60;;
52266;SDS011;38223;50.940;4.034;2023-06-24T14:55:22;1.70;;;1.60;;
52266;SDS011;38223;50.940;4.034;2023-06-24T14:57:58;6.45;;;1.82;;
52266;SDS011;38223;50.940;4.034;2023-06-24T15:00:40;1.72;;;1.62;;
52266;SDS011;38223;50.940;4.034;2023-06-24T15:03:15;2.52;;;1.50;;
52266;SDS011;38223;50.940;4.034;2023-06-24T15:05:48;1.57;;;1.40;;
52266;SDS011;38223;50.940;4.034;2023-06-24T15:08:24;3.77;;;1.50;;
52266;SDS011;38223;50.940;4.034;2023-06-24T15:11:11;3.17;;;2.00;;
52266;SDS011;38223;50.940;4.034;2023-06-24T15:13:52;1.70;;;1.60;;
52266;SDS011;38223;50.940;4.034;2023-06-24T15:16:36;4.72;;;1.55;;
52266;SDS011;38223;50.940;4.034;2023-06-24T15:19:08;1.85;;;1.60;;
52266;SDS011;38223;50.940;4.034;2023-06-24T15:21:45;2.75;;;1.60;;
52266;SDS011;38223;50.940;4.034;2023-06-24T15:24:28;2.50;;;1.37;;
52266;SDS011;38223;50.940;4.034;2023-06-24T15:26:58;1.82;;;1.45;;
52266;SDS011;38223;50.940;4.034;2023-06-24T15:29:34;1.37;;;1.27;;
52266;SDS011;38223;50.940;4.034;2023-06-24T15:32:17;2.15;;;1.90;;
52266;SDS011;38223;50.940;4.034;2023-06-24T15:34:54;1.77;;;1.67;;
52266;SDS011;38223;50.940;4.034;2023-06-24T15:37:30;1.98;;;1.72;;
52266;SDS011;38223;50.940;4.034;2023-06-24T15:40:05;2.62;;;1.50;;
52266;SDS011;38223;50.940;4.034;2023-06-24T15:42:38;2.25;;;1.75;;
52266;SDS011;38223;50.940;4.034;2023-06-24T15:45:15;1.60;;;1.50;;